KSLB/SLB METAR and TAF weather

Enter ICAO airport designator
Station Type Date Time Source
KSLB METAR 2021/05/15 02:15 UTC NOAA

KSLB 150215Z AUTO 13008KT 10SM FEW044 12/12 A3007 RMK AO2


Station Type Date Time Source
KSLB Decoded METAR 2021/05/15 02:15 UTC NOAA

Storm Lake, IA, United States (KSLB) 42-36N 095-14W
May 14, 2021 - 10:15 PM EDT / 2021.05.15 0215 UTC
Wind: from the SE (130 degrees) at 9 MPH (8 KT):0
Visibility: 10 mile(s):0
Sky conditions: mostly clear
Temperature: 53 F (12 C)
Dew Point: 53 F (12 C)
Relative Humidity: 100%
Pressure (altimeter): 30.07 in. Hg (1018 hPa)
ob: KSLB 150215Z AUTO 13008KT 10SM FEW044 12/12 A3007 RMK AO2
cycle: 2

Station Type Date Time Source
KSLB TAF UTC NOAA

Error!

Example: see airport list